sensor_id;sensor_type;location;lat;lon;timestamp;pressure;altitude;pressure_sealevel;temperature;humidity
81232;BME280;70703;55.652;37.710;2024-03-02T00:00:01;101534.38;;;4.45;59.54
81232;BME280;70703;55.652;37.710;2024-03-02T00:00:25;101538.91;;;4.43;59.50
81232;BME280;70703;55.652;37.710;2024-03-02T00:00:38;101524.38;;;4.36;59.79
81232;BME280;70703;55.652;37.710;2024-03-02T00:00:51;101549.19;;;4.48;59.53
81232;BME280;70703;55.652;37.710;2024-03-02T00:01:03;101552.69;;;4.48;59.46
81232;BME280;70703;55.652;37.710;2024-03-02T00:01:14;101543.03;;;4.47;59.62
81232;BME280;70703;55.652;37.710;2024-03-02T00:01:26;101539.56;;;4.47;59.62
81232;BME280;70703;55.652;37.710;2024-03-02T00:01:37;101548.25;;;4.49;59.52
81232;BME280;70703;55.652;37.710;2024-03-02T00:01:50;101549.06;;;4.50;59.55
81232;BME280;70703;55.652;37.710;2024-03-02T00:02:02;101546.44;;;4.50;59.50
81232;BME280;70703;55.652;37.710;2024-03-02T00:02:14;101546.44;;;4.50;59.69
81232;BME280;70703;55.652;37.710;2024-03-02T00:02:25;101548.13;;;4.51;59.65
81232;BME280;70703;55.652;37.710;2024-03-02T00:02:40;101544.53;;;4.52;59.54
81232;BME280;70703;55.652;37.710;2024-03-02T00:02:51;101546.25;;;4.53;59.50
81232;BME280;70703;55.652;37.710;2024-03-02T00:03:03;101545.38;;;4.52;59.50
81232;BME280;70703;55.652;37.710;2024-03-02T00:03:15;101546.25;;;4.53;59.33
81232;BME280;70703;55.652;37.710;2024-03-02T00:03:27;101540.94;;;4.53;59.52
81232;BME280;70703;55.652;37.710;2024-03-02T00:03:38;101546.13;;;4.54;59.40
81232;BME280;70703;55.652;37.710;2024-03-02T00:03:50;101545.28;;;4.54;59.40
81232;BME280;70703;55.652;37.710;2024-03-02T00:04:03;101540.84;;;4.54;59.42
81232;BME280;70703;55.652;37.710;2024-03-02T00:04:15;101538.28;;;4.53;59.29
81232;BME280;70703;55.652;37.710;2024-03-02T00:04:29;101535.00;;;4.49;59.28
81232;BME280;70703;55.652;37.710;2024-03-02T00:04:44;101535.09;;;4.47;59.50
81232;BME280;70703;55.652;37.710;2024-03-02T00:04:56;101542.09;;;4.48;59.32
81232;BME280;70703;55.652;37.710;2024-03-02T00:05:10;101546.44;;;4.50;59.28
81232;BME280;70703;55.652;37.710;2024-03-02T00:05:22;101532.66;;;4.44;59.32
81232;BME280;70703;55.652;37.710;2024-03-02T00:05:34;101540.41;;;4.47;59.37
81232;BME280;70703;55.652;37.710;2024-03-02T00:05:49;101540.28;;;4.49;59.53
81232;BME280;70703;55.652;37.710;2024-03-02T00:06:01;101523.34;;;4.39;59.51
81232;BME280;70703;55.652;37.710;2024-03-02T00:06:13;101542.09;;;4.48;59.33
81232;BME280;70703;55.652;37.710;2024-03-02T00:06:26;101535.00;;;4.49;59.31
81232;BME280;70703;55.652;37.710;2024-03-02T00:06:38;101538.59;;;4.48;59.54
81232;BME280;70703;55.652;37.710;2024-03-02T00:06:51;101534.16;;;4.48;59.26
81232;BME280;70703;55.652;37.710;2024-03-02T00:07:04;101540.41;;;4.47;59.34
81232;BME280;70703;55.652;37.710;2024-03-02T00:07:17;101541.13;;;4.50;59.53
81232;BME280;70703;55.652;37.710;2024-03-02T00:07:29;101536.81;;;4.48;59.51
81232;BME280;70703;55.652;37.710;2024-03-02T00:07:43;101537.53;;;4.51;59.40
81232;BME280;70703;55.652;37.710;2024-03-02T00:07:56;101529.25;;;4.42;59.38
81232;BME280;70703;55.652;37.710;2024-03-02T00:08:07;101549.84;;;4.52;59.38
81232;BME280;70703;55.652;37.710;2024-03-02T00:08:23;101538.41;;;4.51;59.40
81232;BME280;70703;55.652;37.710;2024-03-02T00:08:39;101539.34;;;4.50;59.42
81232;BME280;70703;55.652;37.710;2024-03-02T00:08:51;101549.00;;;4.51;59.34
81232;BME280;70703;55.652;37.710;2024-03-02T00:09:03;101542.00;;;4.50;59.38
81232;BME280;70703;55.652;37.710;2024-03-02T00:09:15;101542.00;;;4.50;59.46
81232;BME280;70703;55.652;37.710;2024-03-02T00:09:26;101536.81;;;4.48;59.33
81232;BME280;70703;55.652;37.710;2024-03-02T00:09:38;101541.13;;;4.50;59.38
81232;BME280;70703;55.652;37.710;2024-03-02T00:09:53;101534.88;;;4.51;59.38
81232;BME280;70703;55.652;37.710;2024-03-02T00:10:08;101536.03;;;4.46;59.52
81232;BME280;70703;55.652;37.710;2024-03-02T00:10:23;101544.75;;;4.48;59.52
81232;BME280;70703;55.652;37.710;2024-03-02T00:10:40;101531.78;;;4.44;59.44
81232;BME280;70703;55.652;37.710;2024-03-02T00:10:57;101538.81;;;4.45;59.61
81232;BME280;70703;55.652;37.710;2024-03-02T00:11:08;101541.22;;;4.48;59.48
81232;BME280;70703;55.652;37.710;2024-03-02T00:11:22;101542.31;;;4.45;59.49
81232;BME280;70703;55.652;37.710;2024-03-02T00:11:35;101536.91;;;4.47;59.62
81232;BME280;70703;55.652;37.710;2024-03-02T00:11:48;101544.84;;;4.47;59.50
81232;BME280;70703;55.652;37.710;2024-03-02T00:12:00;101539.66;;;4.45;59.63
81232;BME280;70703;55.652;37.710;2024-03-02T00:12:15;101546.53;;;4.48;59.54
81232;BME280;70703;55.652;37.710;2024-03-02T00:12:26;101543.16;;;4.46;59.63
81232;BME280;70703;55.652;37.710;2024-03-02T00:12:40;101543.25;;;4.44;59.65
81232;BME280;70703;55.652;37.710;2024-03-02T00:12:52;101541.56;;;4.43;59.64
81232;BME280;70703;55.652;37.710;2024-03-02T00:13:03;101540.50;;;4.46;59.64
81232;BME280;70703;55.652;37.710;2024-03-02T00:13:15;101544.09;;;4.45;59.59
81232;BME280;70703;55.652;37.710;2024-03-02T00:13:27;101542.31;;;4.45;59.58
81232;BME280;70703;55.652;37.710;2024-03-02T00:13:41;101541.34;;;4.46;59.60
81232;BME280;70703;55.652;37.710;2024-03-02T00:13:54;101539.66;;;4.45;59.64
81232;BME280;70703;55.652;37.710;2024-03-02T00:14:06;101534.56;;;4.42;59.65
81232;BME280;70703;55.652;37.710;2024-03-02T00:14:19;101542.22;;;4.47;59.68
81232;BME280;70703;55.652;37.710;2024-03-02T00:14:31;101543.03;;;4.47;59.70
81232;BME280;70703;55.652;37.710;2024-03-02T00:14:43;101539.44;;;4.48;59.71
81232;BME280;70703;55.652;37.710;2024-03-02T00:14:54;101531.78;;;4.44;59.63
81232;BME280;70703;55.652;37.710;2024-03-02T00:15:29;101539.34;;;4.50;59.57
81232;BME280;70703;55.652;37.710;2024-03-02T00:15:46;101544.53;;;4.52;59.69
81232;BME280;70703;55.652;37.710;2024-03-02T00:15:59;101543.69;;;4.51;59.60
81232;BME280;70703;55.652;37.710;2024-03-02T00:16:12;101539.25;;;4.52;59.67
81232;BME280;70703;55.652;37.710;2024-03-02T00:16:24;101526.31;;;4.47;59.47
81232;BME280;70703;55.652;37.710;2024-03-02T00:16:41;101533.09;;;4.51;59.56
81232;BME280;70703;55.652;37.710;2024-03-02T00:16:55;101536.59;;;4.52;59.62
81232;BME280;70703;55.652;37.710;2024-03-02T00:17:08;101534.78;;;4.52;59.53
81232;BME280;70703;55.652;37.710;2024-03-02T00:17:30;101534.78;;;4.52;59.68
81232;BME280;70703;55.652;37.710;2024-03-02T00:17:41;101533.09;;;4.51;59.51
81232;BME280;70703;55.652;37.710;2024-03-02T00:17:53;101528.63;;;4.52;59.67
81232;BME280;70703;55.652;37.710;2024-03-02T00:18:06;101534.66;;;4.54;59.64
81232;BME280;70703;55.652;37.710;2024-03-02T00:18:20;101532.00;;;4.54;59.35
81232;BME280;70703;55.652;37.710;2024-03-02T00:18:33;101532.22;;;4.51;59.45
81232;BME280;70703;55.652;37.710;2024-03-02T00:18:45;101538.28;;;4.53;59.63
81232;BME280;70703;55.652;37.710;2024-03-02T00:19:01;101534.66;;;4.54;59.66
81232;BME280;70703;55.652;37.710;2024-03-02T00:19:15;101530.34;;;4.53;59.36
81232;BME280;70703;55.652;37.710;2024-03-02T00:19:27;101531.28;;;4.52;59.70
81232;BME280;70703;55.652;37.710;2024-03-02T00:19:38;101529.59;;;4.51;59.35
81232;BME280;70703;55.652;37.710;2024-03-02T00:19:51;101537.31;;;4.54;59.58
81232;BME280;70703;55.652;37.710;2024-03-02T00:20:08;101530.44;;;4.51;59.74
81232;BME280;70703;55.652;37.710;2024-03-02T00:20:22;101528.63;;;4.52;59.66
81232;BME280;70703;55.652;37.710;2024-03-02T00:20:34;101530.34;;;4.53;59.69
81232;BME280;70703;55.652;37.710;2024-03-02T00:20:45;101525.03;;;4.53;59.66
81232;BME280;70703;55.652;37.710;2024-03-02T00:20:57;101525.22;;;4.50;59.72
81232;BME280;70703;55.652;37.710;2024-03-02T00:21:08;101529.38;;;4.54;59.61
81232;BME280;70703;55.652;37.710;2024-03-02T00:21:20;101536.38;;;4.55;59.64
81232;BME280;70703;55.652;37.710;2024-03-02T00:21:35;101529.38;;;4.54;59.64
81232;BME280;70703;55.652;37.710;2024-03-02T00:21:47;101530.34;;;4.53;59.46
81232;BME280;70703;55.652;37.710;2024-03-02T00:22:00;101532.00;;;4.54;59.55
81232;BME280;70703;55.652;37.710;2024-03-02T00:22:13;101536.38;;;4.55;59.44
81232;BME280;70703;55.652;37.710;2024-03-02T00:22:24;101528.22;;;4.58;59.48
81232;BME280;70703;55.652;37.710;2024-03-02T00:22:36;101525.56;;;4.58;59.30
81232;BME280;70703;55.652;37.710;2024-03-02T00:22:49;101531.63;;;4.60;59.47
81232;BME280;70703;55.652;37.710;2024-03-02T00:23:03;101535.22;;;4.59;59.45
81232;BME280;70703;55.652;37.710;2024-03-02T00:23:16;101519.00;;;4.51;59.34
81232;BME280;70703;55.652;37.710;2024-03-02T00:23:30;101527.16;;;4.60;59.29
81232;BME280;70703;55.652;37.710;2024-03-02T00:23:43;101529.06;;;4.58;59.21
81232;BME280;70703;55.652;37.710;2024-03-02T00:23:55;101528.84;;;4.61;59.26
81232;BME280;70703;55.652;37.710;2024-03-02T00:24:18;101527.16;;;4.60;59.01
81232;BME280;70703;55.652;37.710;2024-03-02T00:24:32;101529.06;;;4.58;59.20
81232;BME280;70703;55.652;37.710;2024-03-02T00:24:45;101528.03;;;4.61;59.23
81232;BME280;70703;55.652;37.710;2024-03-02T00:24:57;101527.16;;;4.60;59.13
81232;BME280;70703;55.652;37.710;2024-03-02T00:25:09;101525.38;;;4.61;58.99
81232;BME280;70703;55.652;37.710;2024-03-02T00:25:22;101531.63;;;4.60;59.28
81232;BME280;70703;55.652;37.710;2024-03-02T00:25:38;101526.09;;;4.63;59.20
81232;BME280;70703;55.652;37.710;2024-03-02T00:25:52;101530.44;;;4.64;59.16
81232;BME280;70703;55.652;37.710;2024-03-02T00:26:05;101534.78;;;4.65;59.07
81232;BME280;70703;55.652;37.710;2024-03-02T00:26:17;101528.63;;;4.64;59.04
81232;BME280;70703;55.652;37.710;2024-03-02T00:26:30;101529.47;;;4.65;59.19
81232;BME280;70703;55.652;37.710;2024-03-02T00:26:44;101525.88;;;4.66;59.00
81232;BME280;70703;55.652;37.710;2024-03-02T00:26:55;101534.59;;;4.68;59.01
81232;BME280;70703;55.652;37.710;2024-03-02T00:27:08;101536.25;;;4.69;58.90
81232;BME280;70703;55.652;37.710;2024-03-02T00:27:24;101530.97;;;4.69;58.98
81232;BME280;70703;55.652;37.710;2024-03-02T00:27:36;101532.66;;;4.70;58.92
81232;BME280;70703;55.652;37.710;2024-03-02T00:27:48;101533.63;;;4.69;58.90
81232;BME280;70703;55.652;37.710;2024-03-02T00:28:00;101528.41;;;4.68;59.03
81232;BME280;70703;55.652;37.710;2024-03-02T00:28:18;101525.88;;;4.66;58.97
81232;BME280;70703;55.652;37.710;2024-03-02T00:28:34;101524.72;;;4.70;58.92
81232;BME280;70703;55.652;37.710;2024-03-02T00:28:47;101530.84;;;4.71;58.98
81232;BME280;70703;55.652;37.710;2024-03-02T00:29:01;101527.38;;;4.70;58.88
81232;BME280;70703;55.652;37.710;2024-03-02T00:29:14;101529.06;;;4.71;58.92
81232;BME280;70703;55.652;37.710;2024-03-02T00:29:28;101523.00;;;4.69;58.99
81232;BME280;70703;55.652;37.710;2024-03-02T00:29:41;101525.66;;;4.69;58.82
81232;BME280;70703;55.652;37.710;2024-03-02T00:29:53;101531.72;;;4.71;58.89
81232;BME280;70703;55.652;37.710;2024-03-02T00:30:40;101525.66;;;4.69;58.84
81232;BME280;70703;55.652;37.710;2024-03-02T00:30:59;101529.28;;;4.68;58.83
81232;BME280;70703;55.652;37.710;2024-03-02T00:31:12;101530.97;;;4.69;59.05
81232;BME280;70703;55.652;37.710;2024-03-02T00:31:23;101533.72;;;4.68;59.07
81232;BME280;70703;55.652;37.710;2024-03-02T00:31:36;101524.19;;;4.65;59.05
81232;BME280;70703;55.652;37.710;2024-03-02T00:31:51;101526.75;;;4.67;59.10
81232;BME280;70703;55.652;37.710;2024-03-02T00:32:09;101530.25;;;4.67;59.16
81232;BME280;70703;55.652;37.710;2024-03-02T00:32:23;101525.03;;;4.65;59.09
81232;BME280;70703;55.652;37.710;2024-03-02T00:32:37;101527.59;;;4.67;59.19
81232;BME280;70703;55.652;37.710;2024-03-02T00:32:49;101532.88;;;4.67;59.24
81232;BME280;70703;55.652;37.710;2024-03-02T00:33:06;101527.59;;;4.67;59.11
81232;BME280;70703;55.652;37.710;2024-03-02T00:33:18;101527.59;;;4.67;59.21
81232;BME280;70703;55.652;37.710;2024-03-02T00:33:32;101527.59;;;4.67;59.06
81232;BME280;70703;55.652;37.710;2024-03-02T00:33:47;101519.97;;;4.62;59.08
81232;BME280;70703;55.652;37.710;2024-03-02T00:34:00;101530.13;;;4.69;59.06
81232;BME280;70703;55.652;37.710;2024-03-02T00:34:15;101528.53;;;4.66;59.16
81232;BME280;70703;55.652;37.710;2024-03-02T00:34:29;101526.75;;;4.67;59.10
81232;BME280;70703;55.652;37.710;2024-03-02T00:34:40;101527.59;;;4.67;59.00
81232;BME280;70703;55.652;37.710;2024-03-02T00:34:51;101530.97;;;4.69;58.99
81232;BME280;70703;55.652;37.710;2024-03-02T00:35:05;101528.41;;;4.68;58.98
81232;BME280;70703;55.652;37.710;2024-03-02T00:35:18;101526.75;;;4.67;58.96
81232;BME280;70703;55.652;37.710;2024-03-02T00:35:30;101524.00;;;4.68;59.13
81232;BME280;70703;55.652;37.710;2024-03-02T00:35:44;101511.47;;;4.57;58.96
81232;BME280;70703;55.652;37.710;2024-03-02T00:35:55;101530.97;;;4.69;59.02
81232;BME280;70703;55.652;37.710;2024-03-02T00:36:10;101532.66;;;4.70;59.05
81232;BME280;70703;55.652;37.710;2024-03-02T00:36:24;101532.78;;;4.69;59.10
81232;BME280;70703;55.652;37.710;2024-03-02T00:36:37;101526.63;;;4.68;59.18
81232;BME280;70703;55.652;37.710;2024-03-02T00:36:49;101508.72;;;4.59;59.13
81232;BME280;70703;55.652;37.710;2024-03-02T00:37:01;101525.88;;;4.66;58.93
81232;BME280;70703;55.652;37.710;2024-03-02T00:37:14;101533.50;;;4.71;59.07
81232;BME280;70703;55.652;37.710;2024-03-02T00:37:26;101530.13;;;4.69;59.03
81232;BME280;70703;55.652;37.710;2024-03-02T00:37:39;101525.66;;;4.69;58.91
81232;BME280;70703;55.652;37.710;2024-03-02T00:37:52;101529.06;;;4.71;59.03
81232;BME280;70703;55.652;37.710;2024-03-02T00:38:05;101524.72;;;4.70;58.93
81232;BME280;70703;55.652;37.710;2024-03-02T00:38:17;101529.06;;;4.71;58.97
81232;BME280;70703;55.652;37.710;2024-03-02T00:38:28;101532.66;;;4.70;58.88
81232;BME280;70703;55.652;37.710;2024-03-02T00:38:45;101527.38;;;4.70;59.05
81232;BME280;70703;55.652;37.710;2024-03-02T00:38:58;101508.72;;;4.59;58.74
81232;BME280;70703;55.652;37.710;2024-03-02T00:39:12;101531.63;;;4.73;58.73
81232;BME280;70703;55.652;37.710;2024-03-02T00:39:26;101527.25;;;4.72;58.87
81232;BME280;70703;55.652;37.710;2024-03-02T00:39:38;101536.91;;;4.73;58.98
81232;BME280;70703;55.652;37.710;2024-03-02T00:39:50;101530.13;;;4.69;59.04
81232;BME280;70703;55.652;37.710;2024-03-02T00:40:02;101526.53;;;4.70;58.95
81232;BME280;70703;55.652;37.710;2024-03-02T00:40:15;101529.06;;;4.71;59.07
81232;BME280;70703;55.652;37.710;2024-03-02T00:40:29;101534.38;;;4.71;58.98
81232;BME280;70703;55.652;37.710;2024-03-02T00:40:41;101530.00;;;4.70;58.99
81232;BME280;70703;55.652;37.710;2024-03-02T00:40:53;101526.63;;;4.68;58.99
81232;BME280;70703;55.652;37.710;2024-03-02T00:41:07;101530.78;;;4.72;59.07
81232;BME280;70703;55.652;37.710;2024-03-02T00:41:22;101532.56;;;4.72;58.98
81232;BME280;70703;55.652;37.710;2024-03-02T00:41:34;101529.06;;;4.71;58.99
81232;BME280;70703;55.652;37.710;2024-03-02T00:41:48;101533.50;;;4.71;59.03
81232;BME280;70703;55.652;37.710;2024-03-02T00:42:00;101515.72;;;4.60;59.01
81232;BME280;70703;55.652;37.710;2024-03-02T00:42:11;101514.84;;;4.59;58.95
81232;BME280;70703;55.652;37.710;2024-03-02T00:42:24;101532.66;;;4.70;58.88
81232;BME280;70703;55.652;37.710;2024-03-02T00:42:37;101517.09;;;4.65;58.94
81232;BME280;70703;55.652;37.710;2024-03-02T00:42:48;101531.84;;;4.70;59.15
81232;BME280;70703;55.652;37.710;2024-03-02T00:43:01;101528.31;;;4.69;59.01
81232;BME280;70703;55.652;37.710;2024-03-02T00:43:43;101530.13;;;4.69;58.83
81232;BME280;70703;55.652;37.710;2024-03-02T00:43:59;101531.06;;;4.68;58.85
81232;BME280;70703;55.652;37.710;2024-03-02T00:44:15;101521.44;;;4.67;58.92
81232;BME280;70703;55.652;37.710;2024-03-02T00:44:27;101528.53;;;4.66;58.84
81232;BME280;70703;55.652;37.710;2024-03-02T00:44:43;101526.94;;;4.63;58.68
81232;BME280;70703;55.652;37.710;2024-03-02T00:44:54;101529.47;;;4.65;58.89
81232;BME280;70703;55.652;37.710;2024-03-02T00:45:07;101526.31;;;4.60;58.94
81232;BME280;70703;55.652;37.710;2024-03-02T00:45:20;101529.69;;;4.62;58.93
81232;BME280;70703;55.652;37.710;2024-03-02T00:45:33;101521.97;;;4.59;58.93
81232;BME280;70703;55.652;37.710;2024-03-02T00:45:45;101526.22;;;4.61;59.08
81232;BME280;70703;55.652;37.710;2024-03-02T00:45:57;101519.53;;;4.56;58.88
81232;BME280;70703;55.652;37.710;2024-03-02T00:46:11;101522.78;;;4.59;59.01
81232;BME280;70703;55.652;37.710;2024-03-02T00:46:22;101529.81;;;4.60;59.04
81232;BME280;70703;55.652;37.710;2024-03-02T00:46:36;101522.78;;;4.59;59.04
81232;BME280;70703;55.652;37.710;2024-03-02T00:46:48;101532.44;;;4.60;59.00
81232;BME280;70703;55.652;37.710;2024-03-02T00:47:00;101523.66;;;4.60;59.00
81232;BME280;70703;55.652;37.710;2024-03-02T00:47:11;101524.72;;;4.57;59.03
81232;BME280;70703;55.652;37.710;2024-03-02T00:47:22;101528.03;;;4.61;58.98
81232;BME280;70703;55.652;37.710;2024-03-02T00:47:37;101525.38;;;4.61;58.92
81232;BME280;70703;55.652;37.710;2024-03-02T00:47:49;101529.69;;;4.62;59.04
81232;BME280;70703;55.652;37.710;2024-03-02T00:48:01;101525.25;;;4.62;59.04
81232;BME280;70703;55.652;37.710;2024-03-02T00:48:15;101529.69;;;4.62;59.00
81232;BME280;70703;55.652;37.710;2024-03-02T00:48:27;101531.41;;;4.63;59.04
81232;BME280;70703;55.652;37.710;2024-03-02T00:48:40;101536.59;;;4.64;58.97
81232;BME280;70703;55.652;37.710;2024-03-02T00:48:58;101519.31;;;4.59;58.96
81232;BME280;70703;55.652;37.710;2024-03-02T00:49:20;101526.22;;;4.61;58.90
81232;BME280;70703;55.652;37.710;2024-03-02T00:49:31;101524.41;;;4.62;58.97
81232;BME280;70703;55.652;37.710;2024-03-02T00:49:47;101525.38;;;4.61;59.10
81232;BME280;70703;55.652;37.710;2024-03-02T00:49:59;101526.31;;;4.60;59.10
81232;BME280;70703;55.652;37.710;2024-03-02T00:50:10;101522.78;;;4.59;59.08
81232;BME280;70703;55.652;37.710;2024-03-02T00:50:23;101525.44;;;4.59;59.04
81232;BME280;70703;55.652;37.710;2024-03-02T00:50:36;101534.25;;;4.60;59.20
81232;BME280;70703;55.652;37.710;2024-03-02T00:50:51;101532.44;;;4.60;59.21
81232;BME280;70703;55.652;37.710;2024-03-02T00:51:03;101506.16;;;4.44;59.06
81232;BME280;70703;55.652;37.710;2024-03-02T00:51:15;101534.25;;;4.60;59.11
81232;BME280;70703;55.652;37.710;2024-03-02T00:51:29;101534.25;;;4.60;59.26
81232;BME280;70703;55.652;37.710;2024-03-02T00:51:42;101534.38;;;4.58;59.35
81232;BME280;70703;55.652;37.710;2024-03-02T00:51:57;101535.97;;;4.61;59.24
81232;BME280;70703;55.652;37.710;2024-03-02T00:52:11;101528.97;;;4.60;59.20
81232;BME280;70703;55.652;37.710;2024-03-02T00:52:25;101533.31;;;4.61;59.15
81232;BME280;70703;55.652;37.710;2024-03-02T00:52:36;101528.03;;;4.61;59.29
81232;BME280;70703;55.652;37.710;2024-03-02T00:52:48;101526.53;;;4.57;59.32
81232;BME280;70703;55.652;37.710;2024-03-02T00:53:02;101538.50;;;4.62;59.34
81232;BME280;70703;55.652;37.710;2024-03-02T00:53:14;101535.88;;;4.62;59.18
81232;BME280;70703;55.652;37.710;2024-03-02T00:53:27;101534.16;;;4.61;59.33
81232;BME280;70703;55.652;37.710;2024-03-02T00:53:39;101529.69;;;4.62;59.25
81232;BME280;70703;55.652;37.710;2024-03-02T00:53:52;101528.03;;;4.61;59.21
81232;BME280;70703;55.652;37.710;2024-03-02T00:54:09;101524.81;;;4.56;59.43
81232;BME280;70703;55.652;37.710;2024-03-02T00:54:24;101527.91;;;4.62;59.22
81232;BME280;70703;55.652;37.710;2024-03-02T00:54:37;101526.09;;;4.63;59.19
81232;BME280;70703;55.652;37.710;2024-03-02T00:54:49;101528.97;;;4.60;59.27
81232;BME280;70703;55.652;37.710;2024-03-02T00:55:01;101527.81;;;4.64;59.40
81232;BME280;70703;55.652;37.710;2024-03-02T00:55:12;101535.75;;;4.64;59.32
81232;BME280;70703;55.652;37.710;2024-03-02T00:55:24;101510.81;;;4.54;59.19
81232;BME280;70703;55.652;37.710;2024-03-02T00:55:36;101536.47;;;4.66;59.30
81232;BME280;70703;55.652;37.710;2024-03-02T00:55:49;101527.59;;;4.67;59.24
81232;BME280;70703;55.652;37.710;2024-03-02T00:56:01;101540.84;;;4.67;59.22
81232;BME280;70703;55.652;37.710;2024-03-02T00:56:13;101539.13;;;4.66;59.28
81232;BME280;70703;55.652;37.710;2024-03-02T00:56:24;101521.97;;;4.59;59.14
81232;BME280;70703;55.652;37.710;2024-03-02T00:56:37;101535.53;;;4.67;59.18
81232;BME280;70703;55.652;37.710;2024-03-02T00:56:49;101531.94;;;4.68;59.25
81232;BME280;70703;55.652;37.710;2024-03-02T00:57:03;101540.06;;;4.65;59.16
81232;BME280;70703;55.652;37.710;2024-03-02T00:57:15;101532.13;;;4.65;59.30
81232;BME280;70703;55.652;37.710;2024-03-02T00:57:30;101531.19;;;4.66;59.19
81232;BME280;70703;55.652;37.710;2024-03-02T00:57:46;101533.84;;;4.66;59.13
81232;BME280;70703;55.652;37.710;2024-03-02T00:57:58;101532.88;;;4.67;59.22
81232;BME280;70703;55.652;37.710;2024-03-02T00:58:10;101532.22;;;4.63;59.18
81232;BME280;70703;55.652;37.710;2024-03-02T00:58:21;101537.44;;;4.65;59.15
81232;BME280;70703;55.652;37.710;2024-03-02T00:58:33;101521.63;;;4.63;59.07
81232;BME280;70703;55.652;37.710;2024-03-02T00:58:44;101534.69;;;4.67;59.21
81232;BME280;70703;55.652;37.710;2024-03-02T00:58:57;101539.13;;;4.66;59.10
81232;BME280;70703;55.652;37.710;2024-03-02T00:59:10;101542.66;;;4.67;59.00
81232;BME280;70703;55.652;37.710;2024-03-02T00:59:22;101535.75;;;4.64;59.18
81232;BME280;70703;55.652;37.710;2024-03-02T00:59:34;101529.69;;;4.62;59.10
81232;BME280;70703;55.652;37.710;2024-03-02T00:59:45;101536.47;;;4.66;59.16
81232;BME280;70703;55.652;37.710;2024-03-02T00:59:57;101533.94;;;4.64;59.12
81232;BME280;70703;55.652;37.710;2024-03-02T01:00:13;101535.88;;;4.62;59.00
81232;BME280;70703;55.652;37.710;2024-03-02T01:00:27;101534.25;;;4.60;59.13
81232;BME280;70703;55.652;37.710;2024-03-02T01:00:39;101536.03;;;4.59;59.02
81232;BME280;70703;55.652;37.710;2024-03-02T01:00:52;101529.81;;;4.60;59.02
81232;BME280;70703;55.652;37.710;2024-03-02T01:01:04;101538.63;;;4.61;58.89
81232;BME280;70703;55.652;37.710;2024-03-02T01:01:16;101529.06;;;4.58;59.07
81232;BME280;70703;55.652;37.710;2024-03-02T01:01:28;101530.84;;;4.58;59.10
81232;BME280;70703;55.652;37.710;2024-03-02T01:01:40;101532.44;;;4.60;59.06
81232;BME280;70703;55.652;37.710;2024-03-02T01:01:51;101536.03;;;4.59;59.12
81232;BME280;70703;55.652;37.710;2024-03-02T01:02:03;101540.50;;;4.59;59.05
81232;BME280;70703;55.652;37.710;2024-03-02T01:02:15;101535.44;;;4.56;59.11
81232;BME280;70703;55.652;37.710;2024-03-02T01:02:26;101536.16;;;4.58;59.01
81232;BME280;70703;55.652;37.710;2024-03-02T01:02:38;101531.84;;;4.57;59.20
81232;BME280;70703;55.652;37.710;2024-03-02T01:02:50;101533.50;;;4.58;59.17
81232;BME280;70703;55.652;37.710;2024-03-02T01:03:02;101536.03;;;4.59;59.16
81232;BME280;70703;55.652;37.710;2024-03-02T01:03:16;101536.91;;;4.60;59.20
81232;BME280;70703;55.652;37.710;2024-03-02T01:03:28;101534.38;;;4.58;59.19
81232;BME280;70703;55.652;37.710;2024-03-02T01:03:39;101539.78;;;4.57;59.18
81232;BME280;70703;55.652;37.710;2024-03-02T01:03:52;101544.09;;;4.58;59.19
81232;BME280;70703;55.652;37.710;2024-03-02T01:04:04;101536.25;;;4.56;59.23
81232;BME280;70703;55.652;37.710;2024-03-02T01:04:16;101540.72;;;4.56;59.03
81232;BME280;70703;55.652;37.710;2024-03-02T01:04:33;101537.13;;;4.57;59.05
81232;BME280;70703;55.652;37.710;2024-03-02T01:04:46;101539.78;;;4.57;59.14
81232;BME280;70703;55.652;37.710;2024-03-02T01:04:57;101532.78;;;4.56;59.10
81232;BME280;70703;55.652;37.710;2024-03-02T01:05:09;101537.97;;;4.57;59.11
81232;BME280;70703;55.652;37.710;2024-03-02T01:05:21;101539.03;;;4.55;59.00
81232;BME280;70703;55.652;37.710;2024-03-02T01:05:32;101527.69;;;4.53;59.11
81232;BME280;70703;55.652;37.710;2024-03-02T01:05:44;101539.78;;;4.57;59.13
81232;BME280;70703;55.652;37.710;2024-03-02T01:05:56;101544.09;;;4.58;59.22
81232;BME280;70703;55.652;37.710;2024-03-02T01:06:07;101537.13;;;4.57;59.24
81232;BME280;70703;55.652;37.710;2024-03-02T01:06:19;101544.09;;;4.58;59.38
81232;BME280;70703;55.652;37.710;2024-03-02T01:06:31;101538.81;;;4.58;59.31
81232;BME280;70703;55.652;37.710;2024-03-02T01:06:42;101533.63;;;4.56;59.38
81232;BME280;70703;55.652;37.710;2024-03-02T01:06:55;101544.09;;;4.58;59.40
81232;BME280;70703;55.652;37.710;2024-03-02T01:07:09;101537.13;;;4.57;59.48
81232;BME280;70703;55.652;37.710;2024-03-02T01:07:21;101533.72;;;4.55;59.51
81232;BME280;70703;55.652;37.710;2024-03-02T01:07:32;101540.63;;;4.57;59.56
81232;BME280;70703;55.652;37.710;2024-03-02T01:07:45;101535.53;;;4.54;59.56
81232;BME280;70703;55.652;37.710;2024-03-02T01:07:56;101534.66;;;4.54;59.41
81232;BME280;70703;55.652;37.710;2024-03-02T01:08:08;101538.91;;;4.56;59.56
81232;BME280;70703;55.652;37.710;2024-03-02T01:08:21;101539.69;;;4.58;59.42
81232;BME280;70703;55.652;37.710;2024-03-02T01:08:33;101535.22;;;4.59;59.38
81232;BME280;70703;55.652;37.710;2024-03-02T01:08:44;101533.63;;;4.56;59.38
81232;BME280;70703;55.652;37.710;2024-03-02T01:08:57;101539.78;;;4.57;59.29
81232;BME280;70703;55.652;37.710;2024-03-02T01:09:09;101541.47;;;4.58;59.45
81232;BME280;70703;55.652;37.710;2024-03-02T01:09:20;101549.41;;;4.58;59.32